Time;durP1;ratioP1;P1;durP2;ratioP2;P2;SDS_P1;SDS_P2;PMS_P1;PMS_P2;Temp;Humidity;BMP_temperature;BMP_pressure;BME280_temperature;BME280_humidity;BME280_pressure;Samples;Min_cycle;Max_cycle;Signal;HPM_P1;HPM_P2
2024/01/26 00:01:55;;;;;;;59.47;28.80;;;9.80;99.90;;;;;;5083695;28;20617;-40
2024/01/26 00:04:21;;;;;;;60.40;28.60;;;9.80;99.90;;;;;;5082914;28;20267;-43
2024/01/26 00:06:48;;;;;;;62.03;30.52;;;9.80;99.90;;;;;;5083863;28;20198;-42
2024/01/26 00:09:15;;;;;;;60.35;29.85;;;9.80;99.90;;;;;;5083601;28;20868;-43
2024/01/26 00:11:42;;;;;;;61.08;30.33;;;9.80;99.90;;;;;;5083456;28;20268;-46
2024/01/26 00:14:09;;;;;;;60.97;30.45;;;9.80;99.90;;;;;;5082170;28;20212;-43
2024/01/26 00:16:39;;;;;;;62.63;30.67;;;9.90;99.90;;;;;;5082417;28;20273;-43
2024/01/26 00:19:06;;;;;;;60.40;30.45;;;9.90;99.90;;;;;;5082338;28;20700;-42
2024/01/26 00:21:32;;;;;;;63.72;31.13;;;9.90;99.90;;;;;;5083650;28;20687;-42
2024/01/26 00:23:58;;;;;;;63.53;30.50;;;9.90;99.90;;;;;;5083729;28;20209;-38
2024/01/26 00:26:24;;;;;;;66.05;30.65;;;9.90;99.90;;;;;;5083368;28;20194;-42
2024/01/26 00:28:50;;;;;;;64.63;31.45;;;9.90;99.90;;;;;;5083484;28;20592;-47
2024/01/26 00:31:17;;;;;;;66.75;32.90;;;9.90;99.90;;;;;;5083262;28;20214;-44
2024/01/26 00:33:43;;;;;;;66.88;32.70;;;9.90;99.90;;;;;;5083256;28;20260;-40
2024/01/26 00:36:09;;;;;;;69.45;32.08;;;9.90;99.90;;;;;;5082933;28;20186;-41
2024/01/26 00:38:35;;;;;;;65.13;33.13;;;10.00;99.90;;;;;;5083559;28;20701;-40
2024/01/26 00:41:01;;;;;;;68.15;32.88;;;10.00;99.90;;;;;;5083159;28;20193;-39
2024/01/26 00:43:27;;;;;;;69.20;32.42;;;10.00;99.90;;;;;;5083381;28;20193;-42
2024/01/26 00:45:53;;;;;;;70.55;33.70;;;10.00;99.90;;;;;;5081378;28;20190;-43
2024/01/26 00:48:23;;;;;;;67.22;32.92;;;10.00;99.90;;;;;;5083262;28;20225;-41
2024/01/26 00:50:50;;;;;;;68.32;33.90;;;10.00;99.90;;;;;;5080792;28;20950;-44
2024/01/26 00:53:19;;;;;;;71.07;34.38;;;10.00;99.90;;;;;;5082775;28;20186;-40
2024/01/26 00:55:45;;;;;;;68.63;34.88;;;10.00;99.90;;;;;;5083091;28;20197;-42
2024/01/26 00:58:11;;;;;;;67.15;32.95;;;10.00;99.90;;;;;;5083100;28;20182;-38
2024/01/26 01:00:37;;;;;;;65.43;33.22;;;10.10;99.90;;;;;;5082581;28;20182;-39
2024/01/26 01:03:04;;;;;;;65.47;33.60;;;10.10;99.90;;;;;;5082271;28;20194;-44
2024/01/26 01:05:30;;;;;;;63.28;33.35;;;10.10;99.90;;;;;;5082823;28;20178;-42
2024/01/26 01:07:56;;;;;;;64.95;33.53;;;10.10;99.90;;;;;;5083208;28;20193;-40
2024/01/26 01:10:22;;;;;;;60.92;33.33;;;10.20;99.90;;;;;;5082334;28;20198;-43
2024/01/26 01:12:49;;;;;;;65.03;34.03;;;10.20;99.90;;;;;;5080826;28;20531;-38
2024/01/26 01:15:17;;;;;;;63.22;33.67;;;10.20;99.90;;;;;;5082292;28;20193;-41
2024/01/26 01:17:44;;;;;;;69.10;33.75;;;10.20;99.90;;;;;;5082442;28;20614;-42
2024/01/26 01:20:11;;;;;;;63.85;34.53;;;10.30;99.90;;;;;;5082725;28;20182;-39
2024/01/26 01:22:38;;;;;;;67.40;35.75;;;10.30;99.90;;;;;;5082832;28;20537;-41
2024/01/26 01:25:06;;;;;;;62.17;32.25;;;10.30;99.90;;;;;;5082547;28;20205;-38
2024/01/26 01:27:33;;;;;;;59.72;33.55;;;10.30;99.90;;;;;;5082348;28;21214;-44
2024/01/26 01:29:59;;;;;;;62.70;33.63;;;10.30;99.90;;;;;;5082120;28;20515;-40
2024/01/26 01:32:25;;;;;;;62.58;31.48;;;10.30;99.90;;;;;;5082125;28;21238;-41
2024/01/26 01:34:52;;;;;;;58.28;31.13;;;10.30;99.90;;;;;;5080322;28;20186;-38
2024/01/26 01:37:18;;;;;;;50.25;28.92;;;10.30;99.90;;;;;;5080194;28;20213;-41
2024/01/26 01:39:44;;;;;;;57.90;30.33;;;10.40;99.90;;;;;;5082059;28;20194;-38
2024/01/26 01:42:13;;;;;;;55.33;28.90;;;10.40;99.90;;;;;;5082452;28;20186;-43
2024/01/26 01:44:46;;;;;;;49.75;26.98;;;10.40;99.90;;;;;;5079948;28;20190;-42
2024/01/26 01:47:13;;;;;;;45.88;26.50;;;10.40;99.90;;;;;;5081994;28;20277;-46
2024/01/26 01:49:40;;;;;;;46.17;27.80;;;10.40;99.90;;;;;;5080116;28;20713;-42
2024/01/26 01:52:09;;;;;;;44.47;26.13;;;10.40;99.90;;;;;;5081458;28;20273;-45
2024/01/26 01:54:37;;;;;;;45.20;26.02;;;10.40;99.90;;;;;;5081702;28;20182;-43
2024/01/26 01:57:04;;;;;;;46.22;27.05;;;10.50;99.90;;;;;;5081953;28;20193;-43
2024/01/26 01:59:33;;;;;;;46.08;27.38;;;10.50;99.90;;;;;;5069289;28;20217;-36
2024/01/26 02:02:00;;;;;;;41.97;26.45;;;10.50;99.90;;;;;;5081584;28;20190;-41
2024/01/26 02:04:26;;;;;;;42.47;26.27;;;10.50;99.90;;;;;;5082008;28;20247;-42
2024/01/26 02:06:56;;;;;;;44.47;26.75;;;10.50;99.90;;;;;;5081439;28;20289;-43
2024/01/26 02:09:22;;;;;;;40.50;26.42;;;10.50;99.90;;;;;;5079961;28;20300;-43
2024/01/26 02:11:49;;;;;;;44.35;27.35;;;10.50;99.90;;;;;;5081302;28;20197;-39
2024/01/26 02:14:14;;;;;;;39.28;26.20;;;10.50;99.90;;;;;;5081373;28;20189;-44
2024/01/26 02:16:55;;;;;;;37.60;25.42;;;10.50;99.90;;;;;;5081346;28;20196;-42
2024/01/26 02:19:22;;;;;;;41.17;24.88;;;10.50;99.90;;;;;;5081304;28;20268;-47
2024/01/26 02:21:48;;;;;;;40.22;25.17;;;10.60;99.90;;;;;;5081637;28;20197;-40
2024/01/26 02:24:14;;;;;;;42.15;25.55;;;10.60;99.90;;;;;;5081173;28;20185;-42
2024/01/26 02:26:40;;;;;;;37.13;25.40;;;10.60;99.90;;;;;;5079248;28;20617;-39
2024/01/26 02:29:06;;;;;;;38.60;26.60;;;10.60;99.90;;;;;;5079393;28;20735;-42
2024/01/26 02:31:32;;;;;;;38.25;25.88;;;10.60;99.90;;;;;;5081593;28;20533;-42
2024/01/26 02:33:58;;;;;;;37.53;26.55;;;10.60;99.90;;;;;;5081443;28;20186;-44
2024/01/26 02:36:27;;;;;;;38.95;26.85;;;10.60;99.90;;;;;;5081235;28;20184;-44
2024/01/26 02:38:53;;;;;;;34.90;25.25;;;10.60;99.90;;;;;;5081126;28;20237;-41
2024/01/26 02:41:19;;;;;;;40.33;26.10;;;10.70;99.90;;;;;;5080830;28;20198;-44
2024/01/26 02:43:45;;;;;;;40.25;26.98;;;10.60;99.90;;;;;;5079889;28;20190;-41
2024/01/26 02:46:11;;;;;;;37.85;27.05;;;10.70;99.90;;;;;;5080672;28;20232;-41
2024/01/26 02:48:37;;;;;;;37.38;26.25;;;10.70;99.90;;;;;;5079848;28;20376;-43
2024/01/26 02:51:04;;;;;;;39.72;26.67;;;10.70;99.90;;;;;;5081312;28;20197;-42
2024/01/26 02:53:30;;;;;;;38.42;26.58;;;10.60;99.90;;;;;;5080972;28;20235;-46
2024/01/26 02:55:55;;;;;;;38.55;26.40;;;10.70;99.90;;;;;;5081144;28;20981;-42
2024/01/26 02:58:21;;;;;;;36.95;26.23;;;10.70;99.90;;;;;;5079496;28;20194;-44
2024/01/26 03:00:47;;;;;;;37.08;26.45;;;10.70;99.90;;;;;;5079815;28;21031;-43
2024/01/26 03:03:13;;;;;;;37.65;26.55;;;10.70;99.90;;;;;;5080472;28;20324;-42
2024/01/26 03:05:40;;;;;;;37.58;26.15;;;10.70;99.90;;;;;;5080761;28;20189;-43
2024/01/26 03:08:07;;;;;;;38.55;27.35;;;10.70;99.90;;;;;;5080540;28;20198;-41
2024/01/26 03:10:33;;;;;;;39.17;27.02;;;10.70;99.90;;;;;;5079460;28;20177;-44
2024/01/26 03:12:59;;;;;;;39.65;26.77;;;10.70;99.90;;;;;;5081150;28;20628;-44
2024/01/26 03:15:25;;;;;;;38.05;26.08;;;10.70;99.90;;;;;;5078912;28;20186;-42
2024/01/26 03:17:51;;;;;;;39.67;26.00;;;10.70;99.90;;;;;;5081308;28;20181;-42
2024/01/26 03:20:17;;;;;;;37.42;26.15;;;10.70;99.90;;;;;;5080646;28;20186;-42
2024/01/26 03:22:44;;;;;;;36.53;25.25;;;10.70;99.90;;;;;;5080325;28;20639;-43
2024/01/26 03:25:10;;;;;;;38.92;25.73;;;10.70;99.90;;;;;;5080687;28;20204;-41
2024/01/26 03:27:36;;;;;;;37.47;25.38;;;10.80;99.90;;;;;;5080228;28;20276;-40
2024/01/26 03:30:03;;;;;;;36.80;25.40;;;10.80;99.90;;;;;;5079320;28;20567;-43
2024/01/26 03:32:30;;;;;;;35.70;25.05;;;10.70;99.90;;;;;;5080886;28;20182;-38
2024/01/26 03:34:56;;;;;;;37.10;25.05;;;10.70;99.90;;;;;;5080531;28;20277;-43
2024/01/26 03:37:22;;;;;;;35.80;24.85;;;10.80;99.90;;;;;;5080487;28;20764;-40
2024/01/26 03:39:48;;;;;;;36.58;23.88;;;10.80;99.90;;;;;;5062004;28;20194;-41
2024/01/26 03:42:14;;;;;;;36.95;24.98;;;10.80;99.90;;;;;;5080702;28;20216;-40
2024/01/26 03:44:42;;;;;;;36.63;23.52;;;10.80;99.90;;;;;;5079765;28;20197;-42
2024/01/26 03:47:09;;;;;;;37.83;24.13;;;10.80;99.90;;;;;;5080788;28;20190;-45
2024/01/26 03:49:35;;;;;;;39.97;24.35;;;10.80;99.90;;;;;;5079268;28;20216;-44
2024/01/26 03:52:04;;;;;;;38.95;24.42;;;10.80;99.90;;;;;;5080357;28;20699;-47
2024/01/26 03:54:30;;;;;;;38.38;24.10;;;10.80;99.90;;;;;;5080498;28;20186;-45
2024/01/26 03:56:56;;;;;;;39.33;24.10;;;10.80;99.90;;;;;;5080177;28;20194;-44
2024/01/26 03:59:22;;;;;;;37.47;24.10;;;10.80;99.90;;;;;;5080611;28;20638;-38
2024/01/26 04:01:48;;;;;;;35.95;23.58;;;10.80;99.90;;;;;;5084002;28;20251;-40
2024/01/26 04:04:14;;;;;;;37.35;23.67;;;10.80;99.90;;;;;;5083968;28;20190;-42
2024/01/26 04:06:41;;;;;;;35.95;23.17;;;10.80;99.90;;;;;;5084443;28;20243;-43
2024/01/26 04:09:08;;;;;;;38.03;22.67;;;10.80;99.90;;;;;;5069259;28;20213;-42
2024/01/26 04:11:34;;;;;;;39.30;23.63;;;10.80;99.90;;;;;;5084361;28;20538;-41
2024/01/26 04:13:59;;;;;;;36.78;22.90;;;10.80;99.90;;;;;;5084039;28;20185;-39
2024/01/26 04:16:25;;;;;;;36.90;22.33;;;10.80;99.90;;;;;;5083938;28;20185;-38
2024/01/26 04:18:51;;;;;;;32.97;22.45;;;10.80;99.90;;;;;;5083781;28;20189;-41
2024/01/26 04:21:17;;;;;;;34.88;22.25;;;10.70;99.90;;;;;;5083386;28;20186;-41
2024/01/26 04:23:43;;;;;;;37.30;23.52;;;10.80;99.90;;;;;;5083173;28;20185;-42
2024/01/26 04:26:09;;;;;;;34.72;22.67;;;10.80;99.90;;;;;;5083709;28;20185;-39
2024/01/26 04:28:35;;;;;;;36.17;23.25;;;10.80;99.90;;;;;;5083808;28;20221;-42
2024/01/26 04:31:01;;;;;;;38.20;23.63;;;10.80;99.90;;;;;;5084070;28;20190;-42
2024/01/26 04:33:26;;;;;;;35.47;23.30;;;10.80;99.90;;;;;;5065509;28;20181;-41
2024/01/26 04:35:52;;;;;;;36.15;22.70;;;10.90;99.90;;;;;;5083774;28;20197;-41
2024/01/26 04:38:18;;;;;;;35.83;23.95;;;10.80;99.90;;;;;;5083037;28;20308;-39
2024/01/26 04:40:44;;;;;;;39.58;24.33;;;10.80;99.90;;;;;;5083119;28;20259;-44
2024/01/26 04:43:10;;;;;;;35.95;23.77;;;10.90;99.90;;;;;;5082177;28;20258;-42
2024/01/26 04:45:36;;;;;;;38.85;23.77;;;10.90;99.90;;;;;;5081325;28;20182;-46
2024/01/26 04:48:03;;;;;;;37.88;23.50;;;10.90;99.90;;;;;;5083132;28;20178;-39
2024/01/26 04:50:29;;;;;;;37.28;24.70;;;10.90;99.90;;;;;;5083028;28;20282;-40
2024/01/26 04:52:55;;;;;;;38.60;22.92;;;10.90;99.90;;;;;;5083194;28;20267;-41
2024/01/26 04:55:29;;;;;;;38.22;23.95;;;10.90;99.90;;;;;;5083285;28;20185;-40
2024/01/26 04:57:55;;;;;;;33.38;22.27;;;10.90;99.90;;;;;;5083442;28;20186;-39
2024/01/26 05:00:22;;;;;;;32.75;21.45;;;11.00;99.90;;;;;;5080934;28;20200;-39
2024/01/26 05:02:47;;;;;;;37.10;22.88;;;11.00;99.90;;;;;;5080781;28;20205;-41
2024/01/26 05:05:14;;;;;;;35.53;22.27;;;11.00;99.90;;;;;;5083258;28;20194;-39
2024/01/26 05:07:40;;;;;;;36.78;22.55;;;11.00;99.90;;;;;;5082842;28;20196;-44
2024/01/26 05:10:07;;;;;;;31.60;21.48;;;11.00;99.90;;;;;;5083010;28;20228;-44
2024/01/26 05:12:33;;;;;;;33.78;22.35;;;11.10;99.90;;;;;;5081470;28;20193;-44
2024/01/26 05:14:59;;;;;;;34.90;21.67;;;11.10;99.90;;;;;;5083288;28;20193;-39
2024/01/26 05:17:25;;;;;;;34.78;21.08;;;11.10;99.90;;;;;;5083072;28;20182;-44
2024/01/26 05:19:51;;;;;;;31.20;20.25;;;11.10;99.90;;;;;;5082525;28;20205;-42
2024/01/26 05:22:18;;;;;;;32.33;20.88;;;11.20;99.90;;;;;;5083210;28;20291;-41
2024/01/26 05:24:45;;;;;;;29.58;19.50;;;11.20;99.90;;;;;;5082093;28;20718;-38
2024/01/26 05:27:11;;;;;;;29.27;19.70;;;11.20;99.90;;;;;;5079622;28;20188;-43
2024/01/26 05:29:37;;;;;;;30.20;21.20;;;11.20;99.90;;;;;;5082614;28;20251;-39
2024/01/26 05:32:04;;;;;;;32.42;20.02;;;11.20;99.90;;;;;;5081819;28;20189;-42
2024/01/26 05:34:30;;;;;;;36.22;20.65;;;11.20;99.90;;;;;;5083000;28;20207;-45
2024/01/26 05:36:56;;;;;;;31.38;19.48;;;11.30;99.90;;;;;;5082592;28;20211;-44
2024/01/26 05:39:22;;;;;;;33.28;20.98;;;11.30;99.90;;;;;;5081650;28;20316;-43
2024/01/26 05:41:47;;;;;;;37.50;21.65;;;11.30;99.90;;;;;;5081671;28;20193;-44
2024/01/26 05:44:13;;;;;;;31.67;20.52;;;11.30;99.90;;;;;;5081462;28;20268;-43
2024/01/26 05:46:39;;;;;;;29.67;20.13;;;11.30;99.90;;;;;;5081355;28;20228;-43
2024/01/26 05:49:05;;;;;;;30.30;20.30;;;11.30;99.90;;;;;;5080570;28;20213;-46
2024/01/26 05:51:31;;;;;;;34.78;20.92;;;11.30;99.90;;;;;;5082237;28;20186;-43
2024/01/26 05:53:57;;;;;;;33.88;20.60;;;11.30;99.90;;;;;;5081468;28;20193;-41
2024/01/26 05:56:24;;;;;;;33.55;19.80;;;11.30;99.90;;;;;;5081897;28;20178;-40
2024/01/26 05:58:52;;;;;;;32.58;20.27;;;11.30;99.90;;;;;;5082096;28;20289;-40
2024/01/26 06:01:18;;;;;;;30.52;19.42;;;11.30;99.90;;;;;;5081569;28;20190;-41
2024/01/26 06:03:44;;;;;;;30.10;20.58;;;11.30;99.90;;;;;;5082042;28;20692;-46
2024/01/26 06:06:10;;;;;;;26.30;19.40;;;11.30;99.90;;;;;;5081185;28;20194;-38
2024/01/26 06:08:36;;;;;;;32.58;20.90;;;11.30;99.90;;;;;;5081210;28;20341;-43
2024/01/26 06:11:04;;;;;;;27.70;20.48;;;11.30;99.90;;;;;;5080987;28;20218;-40
2024/01/26 06:13:30;;;;;;;28.40;20.17;;;11.30;99.90;;;;;;5080818;28;20196;-44
2024/01/26 06:15:56;;;;;;;25.55;20.33;;;11.30;99.90;;;;;;5081079;28;20182;-40
2024/01/26 06:18:22;;;;;;;29.20;20.77;;;11.40;99.90;;;;;;5081604;28;20190;-43
2024/01/26 06:20:48;;;;;;;26.77;19.48;;;11.40;99.90;;;;;;5081509;28;20657;-39
2024/01/26 06:23:14;;;;;;;31.23;20.63;;;11.40;99.90;;;;;;5081380;28;20560;-41
2024/01/26 06:25:40;;;;;;;28.40;21.08;;;11.40;99.90;;;;;;5063128;28;20189;-43
2024/01/26 06:28:05;;;;;;;26.38;20.35;;;11.40;99.90;;;;;;5081516;28;20989;-42
2024/01/26 06:30:31;;;;;;;26.25;19.85;;;11.50;99.90;;;;;;5061490;28;20218;-40
2024/01/26 06:32:57;;;;;;;29.00;20.10;;;11.50;99.90;;;;;;5081668;28;20674;-42
2024/01/26 06:35:23;;;;;;;27.50;20.48;;;11.50;99.90;;;;;;5079796;28;20182;-39
2024/01/26 06:37:49;;;;;;;29.52;21.55;;;11.50;99.90;;;;;;5080898;28;20220;-43
2024/01/26 06:40:15;;;;;;;26.25;19.35;;;11.50;99.90;;;;;;5061412;28;20234;-51
2024/01/26 06:42:41;;;;;;;25.52;20.23;;;11.50;99.90;;;;;;5049226;28;21032;-44
2024/01/26 06:45:12;;;;;;;26.95;19.15;;;11.50;99.90;;;;;;5080026;28;20883;-41
2024/01/26 06:47:38;;;;;;;24.30;18.17;;;11.50;99.90;;;;;;5080432;28;20554;-42
2024/01/26 06:50:05;;;;;;;26.00;19.98;;;11.50;99.90;;;;;;5080946;28;20691;-47
2024/01/26 06:52:35;;;;;;;29.13;19.25;;;11.50;99.90;;;;;;5080010;28;20561;-39
2024/01/26 06:55:01;;;;;;;27.20;18.95;;;11.50;99.90;;;;;;5062804;28;20178;-41
2024/01/26 06:57:27;;;;;;;29.77;18.75;;;11.50;99.90;;;;;;5062669;28;20650;-42
2024/01/26 06:59:53;;;;;;;25.75;18.58;;;11.50;99.90;;;;;;5061778;28;20195;-43
2024/01/26 07:02:19;;;;;;;24.85;17.67;;;11.50;99.90;;;;;;5044898;28;20258;-43
2024/01/26 07:04:45;;;;;;;25.80;17.30;;;11.40;99.90;;;;;;5079990;28;20197;-43
2024/01/26 07:07:11;;;;;;;25.80;17.77;;;11.40;99.90;;;;;;5079421;28;20209;-41
2024/01/26 07:09:37;;;;;;;21.92;16.27;;;11.40;99.90;;;;;;5080716;28;20213;-39
2024/01/26 07:12:04;;;;;;;27.15;17.40;;;11.40;99.90;;;;;;5080568;28;20278;-39
2024/01/26 07:14:29;;;;;;;21.52;15.93;;;11.40;99.90;;;;;;5081245;28;20242;-40
2024/01/26 07:16:55;;;;;;;19.33;15.23;;;11.40;99.90;;;;;;5045723;28;20182;-45
2024/01/26 07:19:22;;;;;;;18.98;15.23;;;11.40;99.90;;;;;;5079010;28;20190;-44
2024/01/26 07:21:48;;;;;;;20.85;14.43;;;11.40;99.90;;;;;;5080961;28;20190;-38
2024/01/26 07:24:14;;;;;;;17.27;12.50;;;11.40;99.90;;;;;;5078263;28;20194;-41
2024/01/26 07:26:41;;;;;;;18.88;14.13;;;11.40;99.90;;;;;;5062680;28;20196;-40
2024/01/26 07:29:07;;;;;;;15.82;12.27;;;11.50;99.90;;;;;;5078689;28;20267;-39
2024/01/26 07:31:33;;;;;;;14.55;11.77;;;11.50;99.90;;;;;;5079280;28;20591;-38
2024/01/26 07:33:58;;;;;;;17.27;12.15;;;11.50;99.90;;;;;;5079384;28;20205;-39
2024/01/26 07:36:24;;;;;;;17.23;12.95;;;11.50;99.90;;;;;;5084029;28;20650;-41
2024/01/26 07:38:50;;;;;;;15.30;11.50;;;11.50;99.90;;;;;;5082728;28;20278;-38
2024/01/26 07:41:16;;;;;;;13.98;11.15;;;11.50;99.90;;;;;;5066148;28;20589;-39
2024/01/26 07:43:42;;;;;;;15.05;11.43;;;11.50;99.90;;;;;;5083363;28;20431;-38
2024/01/26 07:46:08;;;;;;;14.73;10.68;;;11.50;99.90;;;;;;5084296;28;20658;-40
2024/01/26 07:48:34;;;;;;;16.63;10.52;;;11.50;99.90;;;;;;5081906;28;20335;-42
2024/01/26 07:51:00;;;;;;;13.40;10.40;;;11.60;99.90;;;;;;5084136;28;20205;-40
2024/01/26 07:53:26;;;;;;;11.02;8.88;;;11.60;99.90;;;;;;5064431;28;20957;-42
2024/01/26 07:55:52;;;;;;;13.80;9.90;;;11.60;99.90;;;;;;5049562;28;20178;-44
2024/01/26 07:58:18;;;;;;;12.85;9.38;;;11.60;99.90;;;;;;5049128;28;20208;-41
2024/01/26 08:00:44;;;;;;;12.18;10.05;;;11.60;99.90;;;;;;5084075;28;20314;-40
2024/01/26 08:03:11;;;;;;;11.18;8.85;;;11.60;99.90;;;;;;5082292;28;20186;-42
2024/01/26 08:05:37;;;;;;;11.98;8.93;;;11.60;99.90;;;;;;5064875;28;20334;-42
2024/01/26 08:08:03;;;;;;;12.30;9.48;;;11.60;99.90;;;;;;5084299;28;20597;-39
2024/01/26 08:10:29;;;;;;;12.77;8.93;;;11.60;99.90;;;;;;5082704;28;20225;-42
2024/01/26 08:12:55;;;;;;;11.73;9.05;;;11.60;99.90;;;;;;5084232;28;20186;-40
2024/01/26 08:15:21;;;;;;;11.48;9.50;;;11.60;99.90;;;;;;5082766;28;20189;-42
2024/01/26 08:17:47;;;;;;;11.35;9.23;;;11.60;99.90;;;;;;5082469;28;20198;-40
2024/01/26 08:20:13;;;;;;;11.93;8.65;;;11.60;99.90;;;;;;5082568;28;21006;-39
2024/01/26 08:22:39;;;;;;;9.18;7.57;;;11.60;99.90;;;;;;5083656;28;20239;-41
2024/01/26 08:25:06;;;;;;;7.97;6.32;;;11.60;99.90;;;;;;5083795;28;20753;-42
2024/01/26 08:27:32;;;;;;;8.07;6.80;;;11.60;99.90;;;;;;5082380;28;20197;-41
2024/01/26 08:29:58;;;;;;;6.95;5.95;;;11.60;99.90;;;;;;5083048;28;20220;-40
2024/01/26 08:32:24;;;;;;;6.68;5.55;;;11.60;99.90;;;;;;5081545;28;20264;-39
2024/01/26 08:34:50;;;;;;;7.05;5.28;;;11.60;99.90;;;;;;5082935;28;20669;-41
2024/01/26 08:37:16;;;;;;;5.40;4.82;;;11.70;99.90;;;;;;5083701;28;20181;-42
2024/01/26 08:39:45;;;;;;;6.30;4.70;;;11.60;99.90;;;;;;5082147;28;20190;-40
2024/01/26 08:42:12;;;;;;;5.70;4.57;;;11.60;99.90;;;;;;5065478;28;20182;-42
2024/01/26 08:44:38;;;;;;;6.43;4.22;;;11.60;99.90;;;;;;5083268;28;20246;-46
2024/01/26 08:47:04;;;;;;;7.05;4.75;;;11.60;99.90;;;;;;5047235;28;20239;-41
2024/01/26 08:49:30;;;;;;;6.88;5.57;;;11.60;99.90;;;;;;5064891;28;20217;-39
2024/01/26 08:51:59;;;;;;;11.93;6.22;;;11.60;99.90;;;;;;5082364;28;20189;-39
2024/01/26 08:54:25;;;;;;;11.43;5.70;;;11.50;99.90;;;;;;5062392;28;20333;-39
2024/01/26 08:56:51;;;;;;;13.80;7.07;;;11.50;99.90;;;;;;5082943;28;20190;-38
2024/01/26 08:59:17;;;;;;;12.88;6.93;;;11.60;99.90;;;;;;5083391;28;20193;-39
2024/01/26 09:01:43;;;;;;;12.10;6.57;;;11.60;99.90;;;;;;5083079;28;20198;-41
2024/01/26 09:04:09;;;;;;;17.42;7.72;;;11.60;99.90;;;;;;5082200;28;20185;-44
2024/01/26 09:06:35;;;;;;;19.88;7.47;;;11.60;99.90;;;;;;5082868;28;20191;-39
2024/01/26 09:09:02;;;;;;;21.30;7.63;;;11.60;99.90;;;;;;5082793;28;20206;-42
2024/01/26 09:11:29;;;;;;;14.82;5.68;;;11.60;99.90;;;;;;5079929;28;20191;-48
2024/01/26 09:13:56;;;;;;;14.00;6.80;;;11.60;99.90;;;;;;5082601;28;20193;-41
2024/01/26 09:16:22;;;;;;;19.90;5.72;;;11.60;99.90;;;;;;5082773;28;20182;-40
2024/01/26 09:18:49;;;;;;;11.52;4.00;;;11.50;99.90;;;;;;5080227;28;20190;-45
2024/01/26 09:21:15;;;;;;;13.27;2.05;;;11.40;99.90;;;;;;5080170;28;20281;-42
2024/01/26 09:23:43;;;;;;;6.57;1.52;;;11.20;99.90;;;;;;5079975;28;20238;-39
2024/01/26 09:26:10;;;;;;;5.35;1.20;;;10.80;99.90;;;;;;5079223;28;20186;-39
2024/01/26 09:28:36;;;;;;;4.63;1.10;;;10.40;99.90;;;;;;5080293;28;20590;-43
2024/01/26 09:31:03;;;;;;;9.45;1.33;;;10.00;99.90;;;;;;5081540;28;21931;-43
2024/01/26 09:33:28;;;;;;;7.20;1.60;;;9.80;99.90;;;;;;5080822;28;20644;-39
2024/01/26 09:35:56;;;;;;;5.07;1.30;;;9.70;99.90;;;;;;5081005;28;20276;-39
2024/01/26 09:38:25;;;;;;;7.72;1.42;;;9.60;99.90;;;;;;5080781;28;20241;-37
2024/01/26 09:40:51;;;;;;;6.80;1.40;;;9.50;99.90;;;;;;5080554;28;20202;-38
2024/01/26 09:43:17;;;;;;;8.13;1.63;;;9.50;99.90;;;;;;5079643;28;20654;-37
2024/01/26 09:45:43;;;;;;;8.98;2.05;;;9.40;99.90;;;;;;5080656;28;20186;-36
2024/01/26 09:48:09;;;;;;;11.05;1.77;;;9.30;99.90;;;;;;5080457;28;20619;-37
2024/01/26 09:50:36;;;;;;;14.95;2.00;;;9.30;99.90;;;;;;5078408;28;20284;-39
2024/01/26 09:53:05;;;;;;;11.60;2.58;;;9.30;99.90;;;;;;5080160;28;20863;-38
2024/01/26 09:55:32;;;;;;;11.32;2.22;;;9.30;99.90;;;;;;5080150;28;20218;-38
2024/01/26 09:57:59;;;;;;;13.65;2.47;;;9.30;99.90;;;;;;5078736;28;20558;-37
2024/01/26 10:00:25;;;;;;;21.77;3.05;;;9.20;99.90;;;;;;5080388;28;20243;-39
2024/01/26 10:02:52;;;;;;;18.95;2.72;;;9.20;99.90;;;;;;5079882;28;20224;-43
2024/01/26 10:05:18;;;;;;;19.80;3.50;;;9.20;99.90;;;;;;5080178;28;20526;-43
2024/01/26 10:07:45;;;;;;;23.65;2.72;;;9.10;99.90;;;;;;5080255;28;20189;-41
2024/01/26 10:10:12;;;;;;;19.83;2.65;;;9.10;99.90;;;;;;5078869;28;20198;-40
2024/01/26 10:12:38;;;;;;;20.65;3.08;;;9.00;99.90;;;;;;5077772;28;20717;-38
2024/01/26 10:15:11;;;;;;;25.95;4.30;;;8.90;99.90;;;;;;5079362;28;20182;-41
2024/01/26 10:17:38;;;;;;;34.90;3.97;;;8.90;99.90;;;;;;5078449;28;20182;-40
2024/01/26 10:20:08;;;;;;;26.63;3.88;;;8.80;99.90;;;;;;5078914;28;20195;-38
2024/01/26 10:22:37;;;;;;;31.65;3.40;;;8.80;99.90;;;;;;5080127;28;20189;-36
2024/01/26 10:25:04;;;;;;;26.73;3.63;;;8.70;99.90;;;;;;5077144;28;20217;-39
2024/01/26 10:27:30;;;;;;;16.60;2.50;;;8.70;99.90;;;;;;5079175;28;20591;-41
2024/01/26 10:29:56;;;;;;;18.30;2.90;;;8.70;99.90;;;;;;5079960;28;20213;-40
2024/01/26 10:32:27;;;;;;;15.27;2.60;;;8.70;99.90;;;;;;5081326;28;20231;-43
2024/01/26 10:34:58;;;;;;;18.17;2.90;;;8.70;99.90;;;;;;5081016;28;20209;-39
2024/01/26 10:37:32;;;;;;;21.48;3.33;;;8.70;99.90;;;;;;5079109;28;20237;-42
2024/01/26 10:40:00;;;;;;;25.35;3.60;;;8.80;99.90;;;;;;5081292;28;20193;-39
2024/01/26 10:42:32;;;;;;;21.25;3.67;;;8.90;99.90;;;;;;5081179;28;20193;-43
2024/01/26 10:45:02;;;;;;;14.70;2.60;;;8.90;99.90;;;;;;5080754;28;20714;-40
2024/01/26 10:47:33;;;;;;;13.55;2.15;;;9.10;99.90;;;;;;5080979;28;20186;-45
2024/01/26 10:50:04;;;;;;;20.48;3.30;;;9.10;99.90;;;;;;5080715;28;20261;-40
2024/01/26 10:52:37;;;;;;;25.60;3.03;;;9.20;99.90;;;;;;5080338;28;20181;-41
2024/01/26 10:55:04;;;;;;;18.50;3.17;;;9.30;99.90;;;;;;5080541;28;20607;-39
2024/01/26 10:57:30;;;;;;;19.08;3.92;;;9.30;99.90;;;;;;5080358;28;20192;-42
2024/01/26 10:59:56;;;;;;;23.60;3.55;;;9.40;99.90;;;;;;5080894;28;20189;-42
2024/01/26 11:02:32;;;;;;;22.33;4.00;;;9.40;99.90;;;;;;5079211;28;20186;-42
2024/01/26 11:05:01;;;;;;;23.27;3.63;;;9.40;99.90;;;;;;5079944;28;20212;-45
2024/01/26 11:07:30;;;;;;;13.60;2.22;;;9.50;99.90;;;;;;5080516;28;20213;-41
2024/01/26 11:10:01;;;;;;;20.48;3.50;;;9.50;99.90;;;;;;5080952;28;20306;-44
2024/01/26 11:12:29;;;;;;;22.98;3.88;;;9.60;99.90;;;;;;5084906;28;20200;-41
2024/01/26 11:15:14;;;;;;;22.20;3.45;;;9.60;99.90;;;;;;5084675;28;20261;-42
2024/01/26 11:17:53;;;;;;;10.65;1.95;;;9.60;99.90;;;;;;5084711;28;20200;-42
2024/01/26 11:20:30;;;;;;;20.23;3.50;;;9.60;99.90;;;;;;5084467;28;20194;-41
2024/01/26 11:23:11;;;;;;;16.80;2.55;;;9.50;99.90;;;;;;5083179;28;20196;-40
2024/01/26 11:25:38;;;;;;;18.67;3.33;;;9.60;99.90;;;;;;5083390;28;20276;-41
2024/01/26 11:28:05;;;;;;;12.60;2.42;;;9.60;99.90;;;;;;5083787;28;20189;-41
2024/01/26 11:30:32;;;;;;;23.52;3.17;;;9.60;99.90;;;;;;5084634;28;20201;-38
2024/01/26 11:32:58;;;;;;;15.57;2.92;;;9.60;99.90;;;;;;5082373;28;20936;-40
2024/01/26 11:35:25;;;;;;;19.77;3.63;;;9.60;99.90;;;;;;5084180;28;20182;-40
2024/01/26 11:37:53;;;;;;;15.02;2.67;;;9.60;99.90;;;;;;5082279;28;20225;-40
2024/01/26 11:40:20;;;;;;;21.13;3.45;;;9.50;99.90;;;;;;5084454;28;20196;-43
2024/01/26 11:42:50;;;;;;;16.50;3.08;;;9.60;99.90;;;;;;5084317;28;20578;-42
2024/01/26 11:45:31;;;;;;;18.08;2.95;;;9.60;99.90;;;;;;5083866;28;21043;-47
2024/01/26 11:47:57;;;;;;;17.20;2.78;;;9.50;99.90;;;;;;5082248;28;20188;-42
2024/01/26 11:50:22;;;;;;;19.23;3.45;;;9.60;99.90;;;;;;5083443;28;20689;-42
2024/01/26 11:52:49;;;;;;;19.17;3.45;;;9.60;99.90;;;;;;5082739;28;20628;-41
2024/01/26 11:55:15;;;;;;;18.80;3.85;;;9.60;99.90;;;;;;5083274;28;20667;-44
2024/01/26 11:57:41;;;;;;;7.88;2.25;;;9.60;99.90;;;;;;5083383;28;20182;-41
2024/01/26 12:00:09;;;;;;;35.47;3.40;;;9.60;99.90;;;;;;5081683;28;20229;-46
2024/01/26 12:02:36;;;;;;;26.70;3.10;;;9.60;99.90;;;;;;5083462;28;20201;-40
2024/01/26 12:05:01;;;;;;;19.88;3.42;;;9.60;99.90;;;;;;5083916;28;20194;-40
2024/01/26 12:07:28;;;;;;;24.58;3.97;;;9.60;99.90;;;;;;5083387;28;20545;-45
2024/01/26 12:09:54;;;;;;;23.15;3.70;;;9.40;99.90;;;;;;5083325;28;20209;-40
2024/01/26 12:12:20;;;;;;;14.07;3.15;;;9.30;99.90;;;;;;5083120;28;20531;-40
2024/01/26 12:14:46;;;;;;;25.25;3.72;;;9.20;99.90;;;;;;5081929;28;20251;-40
2024/01/26 12:17:12;;;;;;;17.90;4.30;;;9.10;99.90;;;;;;5083272;28;20194;-43
2024/01/26 12:19:38;;;;;;;17.48;2.50;;;9.10;99.90;;;;;;5082870;28;20190;-40
2024/01/26 12:22:07;;;;;;;19.98;3.00;;;9.10;99.90;;;;;;5083110;28;20182;-47
2024/01/26 12:24:36;;;;;;;12.35;2.95;;;9.10;99.90;;;;;;5064054;28;20193;-44
2024/01/26 12:27:03;;;;;;;18.20;2.08;;;9.10;99.90;;;;;;5083302;28;20201;-44
2024/01/26 12:29:29;;;;;;;15.75;3.25;;;9.10;99.90;;;;;;5083020;28;20301;-42
2024/01/26 12:32:07;;;;;;;14.93;2.97;;;9.10;99.90;;;;;;5083166;28;20251;-44